Time;durP1;ratioP1;P1;durP2;ratioP2;P2;SDS_P1;SDS_P2;PMS_P1;PMS_P2;Temp;Humidity;BMP_temperature;BMP_pressure;BME280_temperature;BME280_humidity;BME280_pressure;Samples;Min_cycle;Max_cycle;Signal;HPM_P1;HPM_P2
2022/06/08 00:01:10;;;;;;;;;3.00;3.00;;;;;21.05;51.22;100328.81;5065114;27;45519;-63
2022/06/08 00:03:45;;;;;;;;;4.00;3.00;;;;;21.02;51.39;100332.59;5064617;27;45683;-63
2022/06/08 00:06:11;;;;;;;;;1.25;1.25;;;;;21.01;51.39;100316.66;5059073;27;46024;-65
2022/06/08 00:08:37;;;;;;;;;2.00;2.00;;;;;21.01;50.64;100322.88;5063482;27;45459;-63
2022/06/08 00:11:02;;;;;;;;;4.00;3.00;;;;;21.05;50.82;100320.78;5071362;27;45539;-63
2022/06/08 00:13:28;;;;;;;;;4.00;2.75;;;;;20.99;51.04;100316.81;5061516;28;45476;-63
2022/06/08 00:15:54;;;;;;;;;2.00;2.00;;;;;20.97;51.08;100308.06;5056324;27;45641;-66
2022/06/08 00:18:23;;;;;;;;;2.00;1.25;;;;;20.93;51.04;100304.81;5058332;28;45553;-63
2022/06/08 00:20:48;;;;;;;;;2.50;2.50;;;;;20.94;51.20;100302.97;5038018;28;45502;-65
2022/06/08 00:23:14;;;;;;;;;2.00;2.00;;;;;20.95;51.06;100297.50;5057401;28;45499;-64
2022/06/08 00:25:39;;;;;;;;;1.00;1.00;;;;;20.89;51.26;100297.16;5076322;28;46396;-66
2022/06/08 00:28:05;;;;;;;;;1.50;1.50;;;;;20.89;51.21;100295.34;5076015;28;45590;-66
2022/06/08 00:30:31;;;;;;;;;2.00;2.00;;;;;20.87;50.71;100291.09;5073134;27;45401;-63
2022/06/08 00:32:57;;;;;;;;;1.00;1.00;;;;;20.89;51.00;100298.00;5067134;27;45670;-66
2022/06/08 00:35:22;;;;;;;;;5.25;3.00;;;;;20.79;51.36;100297.06;5055469;28;45522;-65
2022/06/08 00:37:48;;;;;;;;;4.00;3.00;;;;;20.80;51.65;100287.25;5055704;27;45504;-66
2022/06/08 00:40:18;;;;;;;;;2.00;2.00;;;;;20.80;51.45;100284.56;5055581;28;45475;-65
2022/06/08 00:42:44;;;;;;;;;2.25;2.25;;;;;20.84;51.74;100281.50;5063314;27;45500;-66
2022/06/08 00:45:14;;;;;;;;;6.00;3.25;;;;;20.67;51.94;100274.03;5070779;27;45737;-64
2022/06/08 00:47:48;;;;;;;;;7.33;7.33;;;;;20.62;51.83;100260.22;5056360;28;45516;-65
2022/06/08 00:50:20;;;;;;;;;2.75;2.75;;;;;20.65;52.05;100271.50;5071500;27;45515;-66
2022/06/08 00:52:47;;;;;;;;;2.50;2.50;;;;;20.63;52.28;100270.78;5069450;27;45584;-64
2022/06/08 00:55:15;;;;;;;;;2.25;2.25;;;;;20.62;52.45;100270.91;5065941;27;45652;-64
2022/06/08 00:57:47;;;;;;;;;4.00;2.00;;;;;20.66;52.37;100273.22;5069496;27;45496;-62
2022/06/08 01:00:37;;;;;;;;;2.50;2.50;;;;;20.65;52.86;100262.63;5063377;28;45519;-64
2022/06/08 01:03:02;;;;;;;;;2.00;2.00;;;;;20.64;52.72;100260.94;5046033;27;45551;-64
2022/06/08 01:05:39;;;;;;;;;2.00;2.00;;;;;20.66;52.66;100261.66;5067746;28;48353;-66
2022/06/08 01:08:20;;;;;;;;;4.25;2.75;;;;;20.64;53.12;100258.28;5060876;27;45486;-65
2022/06/08 01:10:49;;;;;;;;;1.25;1.25;;;;;20.64;53.17;100266.28;5082695;27;45498;-65
2022/06/08 01:13:15;;;;;;;;;3.25;2.00;;;;;20.65;53.15;100258.13;5095072;27;45511;-64
2022/06/08 01:15:42;;;;;;;;;1.75;1.75;;;;;20.60;54.23;100263.00;5095895;27;45809;-64
2022/06/08 01:18:08;;;;;;;;;2.00;2.00;;;;;20.55;53.56;100253.66;5061810;27;45574;-64
2022/06/08 01:20:34;;;;;;;;;2.25;2.25;;;;;20.52;54.39;100252.06;5079503;27;45538;-65
2022/06/08 01:23:01;;;;;;;;;2.50;2.00;;;;;20.49;53.74;100261.19;5071119;28;46077;-63
2022/06/08 01:25:36;;;;;;;;;2.00;2.00;;;;;20.40;54.22;100264.63;5084289;27;45446;-66
2022/06/08 01:28:30;;;;;;;;;3.75;2.00;;;;;20.42;54.00;100268.03;5060484;27;45449;-64
2022/06/08 01:30:58;;;;;;;;;2.75;2.75;;;;;20.41;54.37;100246.75;5055331;28;46035;-63
2022/06/08 01:34:02;;;;;;;;;1.00;1.00;;;;;20.39;53.97;100236.22;5055675;28;45607;-65
2022/06/08 01:36:27;;;;;;;;;3.25;3.00;;;;;20.43;54.48;100256.34;5013073;28;45678;-64
2022/06/08 01:39:06;;;;;;;;;1.50;1.50;;;;;20.45;54.05;100250.91;5050476;28;45393;-66
2022/06/08 01:41:53;;;;;;;;;4.00;2.75;;;;;20.38;53.84;100247.03;5055171;28;45426;-66
2022/06/08 01:47:41;;;;;;;;;2.00;2.00;;;;;20.32;54.78;100252.88;5062637;28;45564;-67
2022/06/08 01:50:23;;;;;;;;;3.00;2.00;;;;;20.25;54.77;100256.03;5074934;28;45423;-66
2022/06/08 01:53:02;;;;;;;;;5.00;3.67;;;;;20.27;54.91;100267.44;5056857;28;45519;-64
2022/06/08 01:55:43;;;;;;;;;2.00;2.00;;;;;20.22;54.93;100258.94;5068728;28;45453;-67
2022/06/08 01:58:08;;;;;;;;;4.00;3.00;;;;;20.28;54.92;100257.59;5061669;28;45743;-66
2022/06/08 02:00:44;;;;;;;;;4.00;3.00;;;;;20.27;54.40;100248.75;5060762;28;45535;-66
2022/06/08 02:03:12;;;;;;;;;3.50;3.50;;;;;20.24;54.95;100245.50;5054786;28;45521;-66
2022/06/08 02:05:42;;;;;;;;;4.00;2.00;;;;;20.21;55.19;100248.41;5053999;28;45711;-63
2022/06/08 02:08:18;;;;;;;;;2.00;2.00;;;;;20.26;55.19;100239.06;5067022;28;47583;-66
2022/06/08 02:11:00;;;;;;;;;2.50;2.50;;;;;20.16;54.97;100227.41;5056657;28;45551;-67
2022/06/08 02:13:33;;;;;;;;;4.25;3.25;;;;;20.12;55.20;100233.13;5079131;27;45401;-64
2022/06/08 02:16:07;;;;;;;;;2.25;2.25;;;;;20.17;54.89;100226.44;5069138;28;45608;-66
2022/06/08 02:19:00;;;;;;;;;1.00;1.00;;;;;20.19;55.15;100226.31;5054422;28;45595;-66
2022/06/08 02:21:34;;;;;;;;;2.00;2.00;;;;;20.12;54.94;100219.78;5047703;28;45493;-64
2022/06/08 02:24:09;;;;;;;;;2.50;2.50;;;;;19.99;55.42;100226.13;5036054;28;45405;-66
2022/06/08 02:26:39;;;;;;;;;3.50;3.00;;;;;19.94;55.93;100233.66;5068198;28;45486;-64
2022/06/08 02:29:09;;;;;;;;;4.00;2.50;;;;;19.94;56.03;100232.81;5073362;27;45578;-65
2022/06/08 02:31:46;;;;;;;;;2.33;2.33;;;;;19.99;55.69;100244.81;5062005;28;45552;-66
2022/06/08 02:34:31;;;;;;;;;2.67;2.33;;;;;19.99;56.35;100241.28;5059915;28;45491;-65
2022/06/08 02:37:21;;;;;;;;;2.50;2.50;;;;;19.98;56.44;100239.56;5058106;28;45463;-63
2022/06/08 02:39:53;;;;;;;;;4.00;2.67;;;;;19.80;56.57;100218.75;5065432;28;45413;-66
2022/06/08 02:42:26;;;;;;;;;1.00;1.00;;;;;19.82;56.30;100231.94;5059462;28;45497;-68
2022/06/08 02:45:09;;;;;;;;;2.50;2.50;;;;;19.80;58.54;100213.41;5074681;28;45556;-63
2022/06/08 02:47:38;;;;;;;;;3.00;2.00;;;;;19.84;57.63;100222.00;5069550;28;45594;-65
2022/06/08 02:50:20;;;;;;;;;1.00;1.00;;;;;19.88;58.42;100220.81;5080441;27;46556;-65
2022/06/08 02:52:47;;;;;;;;;3.00;3.00;;;;;19.76;57.41;100219.09;5094670;27;45570;-66
2022/06/08 02:55:30;;;;;;;;;5.00;2.75;;;;;19.73;57.71;100209.53;5073244;27;45633;-65
2022/06/08 02:58:01;;;;;;;;;2.33;2.33;;;;;19.76;57.56;100219.94;5076212;27;45544;-66
2022/06/08 03:00:45;;;;;;;;;4.00;3.00;;;;;19.64;58.36;100199.56;5053458;28;46706;-63
2022/06/08 03:03:24;;;;;;;;;2.00;1.50;;;;;19.62;58.38;100198.84;5054057;28;45438;-66
2022/06/08 03:06:04;;;;;;;;;2.00;2.00;;;;;19.57;57.88;100198.34;5054313;28;45568;-63
2022/06/08 03:08:35;;;;;;;;;2.50;2.50;;;;;19.59;58.86;100196.41;5054279;28;45405;-65
2022/06/08 03:11:04;;;;;;;;;2.00;2.00;;;;;19.63;58.53;100190.69;5053079;28;46656;-64
2022/06/08 03:13:40;;;;;;;;;2.00;2.00;;;;;19.66;58.12;100184.28;5054145;28;45457;-64
2022/06/08 03:16:08;;;;;;;;;3.33;2.00;;;;;19.72;58.59;100170.47;5055130;28;45543;-65
2022/06/08 03:18:34;;;;;;;;;3.00;1.00;;;;;19.59;58.53;100153.72;5035901;28;45504;-66
2022/06/08 03:21:01;;;;;;;;;3.00;3.00;;;;;19.63;59.06;100149.81;5053594;28;45863;-64
2022/06/08 03:23:27;;;;;;;;;2.33;2.33;;;;;19.63;58.96;100150.66;5066924;28;45919;-63
2022/06/08 03:25:53;;;;;;;;;1.33;1.33;;;;;19.68;59.12;100145.00;5064604;28;45470;-65
2022/06/08 03:28:19;;;;;;;;;2.00;2.00;;;;;19.65;58.80;100131.88;5052861;28;45647;-66
2022/06/08 03:30:45;;;;;;;;;3.67;2.67;;;;;19.60;58.76;100137.59;5053484;28;45482;-65
2022/06/08 03:33:11;;;;;;;;;2.00;2.00;;;;;19.57;58.55;100139.66;5054357;28;45354;-66
2022/06/08 03:35:38;;;;;;;;;1.50;1.50;;;;;19.57;59.14;100143.16;5054370;28;45523;-62
2022/06/08 03:38:04;;;;;;;;;2.00;2.00;;;;;19.58;59.10;100136.84;5056927;28;45608;-62
2022/06/08 03:40:30;;;;;;;;;2.67;2.00;;;;;19.62;59.55;100137.47;5064490;28;46570;-62
2022/06/08 03:42:56;;;;;;;;;2.00;2.00;;;;;19.62;58.92;100130.31;5077183;28;45503;-65
2022/06/08 03:45:22;;;;;;;;;2.67;2.00;;;;;19.63;59.47;100129.31;5074293;28;45802;-62
2022/06/08 03:47:51;;;;;;;;;3.00;3.00;;;;;19.67;59.08;100134.47;5056921;28;45512;-65
2022/06/08 03:50:29;;;;;;;;;3.33;2.00;;;;;19.67;58.96;100135.31;5060712;28;46267;-66
2022/06/08 03:53:01;;;;;;;;;2.33;2.33;;;;;19.72;59.68;100133.13;5076828;28;45467;-65
2022/06/08 03:55:30;;;;;;;;;6.33;4.00;;;;;19.70;59.79;100134.22;5063037;28;45602;-63
2022/06/08 03:57:56;;;;;;;;;4.00;4.00;;;;;19.65;59.74;100129.22;5056812;28;45423;-61
2022/06/08 04:00:23;;;;;;;;;4.00;3.00;;;;;19.55;60.77;100131.75;5056024;28;45510;-63
2022/06/08 04:02:49;;;;;;;;;5.00;5.00;;;;;19.52;60.64;100131.19;5056549;27;45418;-63
2022/06/08 04:05:16;;;;;;;;;4.00;4.00;;;;;19.55;60.61;100120.25;5083243;27;45482;-63
2022/06/08 04:07:42;;;;;;;;;3.33;3.33;;;;;19.41;60.94;100124.03;5065339;28;45441;-64
2022/06/08 04:10:09;;;;;;;;;3.33;3.33;;;;;19.45;60.99;100122.84;5069338;28;45497;-64
2022/06/08 04:12:35;;;;;;;;;5.33;3.00;;;;;19.48;61.09;100122.59;5060254;28;45444;-65
2022/06/08 04:15:01;;;;;;;;;2.33;2.33;;;;;19.57;60.36;100118.31;5076597;27;45507;-62
2022/06/08 04:17:27;;;;;;;;;4.00;3.00;;;;;19.58;60.22;100117.34;5076758;27;45638;-65
2022/06/08 04:19:53;;;;;;;;;3.33;3.00;;;;;19.60;60.43;100102.06;5050823;28;45680;-63
2022/06/08 04:22:20;;;;;;;;;5.00;4.00;;;;;19.42;61.48;100094.59;5055838;28;45586;-64
2022/06/08 04:24:46;;;;;;;;;2.67;2.67;;;;;19.45;62.13;100098.81;5056565;28;45524;-66
2022/06/08 04:27:12;;;;;;;;;5.00;2.00;;;;;19.48;61.49;100098.56;5056242;28;45382;-64
2022/06/08 04:29:39;;;;;;;;;3.00;3.00;;;;;19.49;61.09;100094.94;5059025;28;47245;-65
2022/06/08 04:32:07;;;;;;;;;3.00;2.67;;;;;19.39;62.07;100088.63;5058783;28;45564;-63
2022/06/08 04:34:33;;;;;;;;;2.33;2.33;;;;;19.30;61.49;100078.72;5055609;28;45520;-63
2022/06/08 04:36:58;;;;;;;;;4.33;2.33;;;;;19.38;61.27;100090.47;5086816;27;45447;-63
2022/06/08 04:39:23;;;;;;;;;3.00;2.00;;;;;19.39;61.00;100080.63;5096576;27;46537;-66
2022/06/08 04:41:49;;;;;;;;;5.33;4.33;;;;;19.33;61.92;100084.63;5076270;27;45991;-63
2022/06/08 04:44:15;;;;;;;;;3.33;3.33;;;;;19.31;62.05;100075.06;5056273;28;45456;-62
2022/06/08 04:46:40;;;;;;;;;3.00;3.00;;;;;19.24;62.40;100076.56;5055914;28;46001;-65
2022/06/08 04:49:05;;;;;;;;;3.00;3.00;;;;;18.97;63.33;100073.28;5055964;28;46096;-63
2022/06/08 04:51:33;;;;;;;;;4.00;4.00;;;;;18.93;63.44;100078.97;5055692;28;45591;-66
2022/06/08 04:53:58;;;;;;;;;3.00;3.00;;;;;18.96;63.10;100073.38;5054997;28;45498;-64
2022/06/08 04:56:23;;;;;;;;;4.33;4.00;;;;;18.74;64.56;100061.75;5055903;28;45564;-61
2022/06/08 04:58:49;;;;;;;;;3.00;3.00;;;;;18.72;64.41;100060.97;5055693;28;46605;-62
2022/06/08 05:01:14;;;;;;;;;2.00;2.00;;;;;18.82;64.67;100060.31;5056511;28;45508;-64
2022/06/08 05:03:40;;;;;;;;;3.33;3.33;;;;;18.81;64.82;100066.63;5074178;27;45484;-65
2022/06/08 05:06:05;;;;;;;;;3.67;3.00;;;;;18.64;65.20;100059.88;5076829;27;45453;-65
2022/06/08 05:08:34;;;;;;;;;3.00;3.00;;;;;18.51;65.03;100054.66;5067541;28;45765;-65
2022/06/08 05:10:59;;;;;;;;;7.33;4.00;;;;;18.58;65.30;100057.72;5071868;28;46040;-63
2022/06/08 05:13:25;;;;;;;;;2.67;2.67;;;;;18.48;65.87;100047.78;5069625;27;45383;-66
2022/06/08 05:15:50;;;;;;;;;6.00;5.00;;;;;18.47;65.54;100047.88;5059687;28;45551;-65
2022/06/08 05:18:18;;;;;;;;;3.67;3.67;;;;;18.49;65.22;100045.97;5055279;28;46295;-63
2022/06/08 05:20:45;;;;;;;;;2.67;2.67;;;;;18.45;65.72;100049.81;5063053;28;45547;-63
2022/06/08 05:23:19;;;;;;;;;3.33;3.33;;;;;18.45;65.88;100048.00;5075169;27;45687;-64
2022/06/08 05:25:46;;;;;;;;;3.00;3.00;;;;;18.51;65.61;100046.66;5075391;28;45487;-64
2022/06/08 05:28:13;;;;;;;;;3.00;3.00;;;;;18.51;65.14;100041.34;5065916;28;46026;-65
2022/06/08 05:30:40;;;;;;;;;4.00;3.00;;;;;18.55;64.90;100029.50;5054591;28;45502;-66
2022/06/08 05:33:06;;;;;;;;;2.67;2.67;;;;;18.63;65.47;100042.22;5059617;28;45501;-63
2022/06/08 05:35:31;;;;;;;;;2.67;2.00;;;;;18.57;65.47;100040.03;5061284;27;45657;-66
2022/06/08 05:37:57;;;;;;;;;2.33;2.33;;;;;18.52;65.54;100043.06;5054667;28;45850;-63
2022/06/08 05:40:24;;;;;;;;;3.33;2.00;;;;;18.54;65.38;100041.97;5036532;28;45498;-66
2022/06/08 05:42:50;;;;;;;;;4.33;3.00;;;;;18.60;64.72;100037.97;5036658;28;45584;-62
2022/06/08 05:45:24;;;;;;;;;2.00;2.00;;;;;18.59;64.79;100038.97;5054961;28;45607;-64
2022/06/08 05:47:50;;;;;;;;;2.00;2.00;;;;;18.56;64.09;100033.84;5055050;28;45474;-65
2022/06/08 05:50:16;;;;;;;;;2.33;2.33;;;;;18.38;65.59;100029.97;5058235;27;45479;-64
2022/06/08 05:52:41;;;;;;;;;2.00;2.00;;;;;18.23;65.61;100030.16;5054707;28;45409;-65
2022/06/08 05:55:08;;;;;;;;;3.33;2.00;;;;;18.23;65.67;100027.50;5064479;28;45565;-62
2022/06/08 05:57:33;;;;;;;;;4.33;2.33;;;;;18.21;66.34;100033.91;5061925;28;45606;-62
2022/06/08 05:59:59;;;;;;;;;3.00;3.00;;;;;18.04;66.41;100029.88;5051374;28;45547;-61
2022/06/08 06:02:24;;;;;;;;;3.00;3.00;;;;;17.93;67.01;100040.47;5054845;28;45990;-62
2022/06/08 06:04:50;;;;;;;;;5.00;4.67;;;;;17.87;66.99;100029.31;5073826;27;45539;-64
2022/06/08 06:07:16;;;;;;;;;4.00;4.00;;;;;17.96;67.28;100030.44;5071323;27;45479;-67
2022/06/08 06:09:42;;;;;;;;;4.00;3.00;;;;;18.00;67.95;100028.38;5071626;27;45467;-68
2022/06/08 06:12:08;;;;;;;;;4.33;2.33;;;;;18.03;67.32;100036.16;5074682;28;45384;-68
2022/06/08 06:14:34;;;;;;;;;2.00;2.00;;;;;18.07;67.58;100041.13;5060638;28;45668;-65
2022/06/08 06:16:59;;;;;;;;;2.33;1.67;;;;;18.00;67.38;100029.25;5064716;27;45980;-66
2022/06/08 06:19:25;;;;;;;;;2.00;1.67;;;;;17.96;67.01;100040.25;5066626;28;45914;-67
2022/06/08 06:21:50;;;;;;;;;2.00;2.00;;;;;17.97;67.61;100042.75;5078126;27;45524;-65
2022/06/08 06:24:17;;;;;;;;;3.00;2.67;;;;;18.05;67.34;100036.88;5069998;27;45686;-66
2022/06/08 06:26:42;;;;;;;;;2.00;2.00;;;;;18.17;67.55;100037.78;5064791;28;46180;-67
2022/06/08 06:29:07;;;;;;;;;2.33;2.33;;;;;18.15;67.29;100037.03;5053212;27;45466;-66
2022/06/08 06:31:40;;;;;;;;;2.67;2.00;;;;;18.16;67.36;100039.59;5055137;28;45499;-65
2022/06/08 06:34:06;;;;;;;;;3.00;3.00;;;;;18.24;67.21;100039.84;5080640;27;45596;-65
2022/06/08 06:36:31;;;;;;;;;5.33;4.67;;;;;18.25;67.13;100046.03;5094371;27;45472;-65
2022/06/08 06:38:57;;;;;;;;;3.67;2.33;;;;;18.29;66.37;100042.16;5094558;27;45503;-65
2022/06/08 06:41:22;;;;;;;;;4.33;4.00;;;;;18.19;67.26;100046.47;5056419;28;45575;-65
2022/06/08 06:43:48;;;;;;;;;3.33;3.33;;;;;18.12;67.64;100046.09;5054097;28;45563;-65
2022/06/08 06:46:15;;;;;;;;;2.33;2.33;;;;;18.09;67.30;100046.34;5053976;28;45536;-65
2022/06/08 06:48:42;;;;;;;;;2.67;2.00;;;;;18.16;66.83;100054.69;5054369;28;45536;-65
2022/06/08 06:51:12;;;;;;;;;3.00;2.00;;;;;18.05;67.26;100050.19;5037077;28;45393;-65
2022/06/08 06:53:38;;;;;;;;;2.00;2.00;;;;;17.98;66.84;100033.84;5036746;28;45486;-66
2022/06/08 06:56:03;;;;;;;;;2.00;2.00;;;;;18.17;66.65;100048.41;5053831;28;45710;-65
2022/06/08 06:58:28;;;;;;;;;1.33;1.33;;;;;18.23;66.58;100054.13;5054569;28;45485;-65
2022/06/08 07:00:54;;;;;;;;;1.00;1.00;;;;;18.15;66.88;100053.84;5053592;28;45520;-65
2022/06/08 07:03:20;;;;;;;;;0.33;0.33;;;;;18.04;67.20;100052.00;5073184;27;45590;-65
2022/06/08 07:05:46;;;;;;;;;0.00;0.00;;;;;18.12;66.96;100050.56;5089075;27;46171;-65
2022/06/08 07:08:11;;;;;;;;;0.67;0.67;;;;;18.18;66.71;100050.09;5077364;27;45435;-65
2022/06/08 07:10:37;;;;;;;;;1.00;1.00;;;;;18.15;67.13;100056.50;5054560;28;45560;-65
2022/06/08 07:13:04;;;;;;;;;0.00;0.00;;;;;18.16;66.74;100047.56;5057202;28;45456;-66
2022/06/08 07:15:30;;;;;;;;;3.00;1.67;;;;;18.17;67.23;100051.94;5050176;28;45500;-66
2022/06/08 07:17:55;;;;;;;;;1.00;1.00;;;;;18.09;66.98;100036.53;5056548;28;45613;-64
2022/06/08 07:20:22;;;;;;;;;0.00;0.00;;;;;18.08;67.56;100055.25;5057183;28;45555;-64
2022/06/08 07:22:48;;;;;;;;;1.00;1.00;;;;;18.06;67.44;100060.72;5057079;28;45587;-64
2022/06/08 07:25:14;;;;;;;;;1.00;1.00;;;;;18.09;67.57;100059.63;5080958;27;45815;-64
2022/06/08 07:27:41;;;;;;;;;1.00;1.00;;;;;18.11;66.26;100049.75;5057210;28;45516;-64
2022/06/08 07:30:08;;;;;;;;;2.33;1.00;;;;;18.20;66.83;100059.69;5057056;28;45477;-64
2022/06/08 07:32:35;;;;;;;;;0.00;0.00;;;;;18.22;67.03;100051.59;5072810;28;45511;-64
2022/06/08 07:35:02;;;;;;;;;1.25;0.25;;;;;18.05;67.22;100047.50;5072636;28;46872;-66
2022/06/08 07:37:27;;;;;;;;;0.67;0.67;;;;;18.24;67.39;100061.16;5056772;28;45449;-66
2022/06/08 07:39:53;;;;;;;;;8.33;8.33;;;;;18.32;67.01;100050.78;5057439;28;45539;-66
2022/06/08 07:42:18;;;;;;;;;1.00;1.00;;;;;18.22;67.56;100060.41;5076941;28;45406;-66
2022/06/08 07:44:44;;;;;;;;;2.00;1.00;;;;;18.26;66.94;100067.19;5076800;28;46030;-64
2022/06/08 07:47:10;;;;;;;;;1.00;1.00;;;;;18.35;67.05;100054.13;5076558;28;45476;-64
2022/06/08 07:49:45;;;;;;;;;0.33;0.33;;;;;18.31;67.26;100054.38;5075554;28;45451;-66
2022/06/08 07:52:17;;;;;;;;;1.00;1.00;;;;;18.30;67.19;100057.19;5056769;28;45468;-65
2022/06/08 07:54:44;;;;;;;;;0.00;0.00;;;;;18.35;67.00;100055.00;5055713;28;45504;-65
2022/06/08 07:57:22;;;;;;;;;2.00;0.00;;;;;18.45;66.58;100055.97;5054812;28;45362;-65
2022/06/08 07:59:48;;;;;;;;;1.00;1.00;;;;;18.54;66.68;100054.44;5056775;28;45622;-64
2022/06/08 08:02:14;;;;;;;;;0.00;0.00;;;;;18.54;66.76;100051.78;5055696;28;45456;-65
2022/06/08 08:04:39;;;;;;;;;0.00;0.00;;;;;18.65;66.38;100056.28;5056805;28;46218;-65
2022/06/08 08:07:05;;;;;;;;;0.00;0.00;;;;;18.73;65.93;100057.38;5076921;27;45470;-65
2022/06/08 08:09:33;;;;;;;;;0.00;0.00;;;;;18.89;65.89;100050.88;5063674;27;45579;-65
2022/06/08 08:12:00;;;;;;;;;1.00;1.00;;;;;19.01;65.78;100049.88;5056467;28;45494;-63
2022/06/08 08:14:26;;;;;;;;;0.00;0.00;;;;;19.11;65.16;100048.19;5056159;28;45838;-66
2022/06/08 08:16:52;;;;;;;;;0.00;0.00;;;;;19.15;65.58;100038.97;5055495;28;45491;-65
2022/06/08 08:19:21;;;;;;;;;0.00;0.00;;;;;19.17;64.95;100042.34;5056503;28;45591;-66
2022/06/08 08:21:47;;;;;;;;;0.00;0.00;;;;;19.19;65.43;100043.09;5056051;28;45593;-65
2022/06/08 08:24:13;;;;;;;;;0.00;0.00;;;;;19.20;65.73;100041.28;5065284;28;45578;-64
2022/06/08 08:26:39;;;;;;;;;0.00;0.00;;;;;19.31;65.15;100037.75;5055379;28;45625;-64
2022/06/08 08:29:05;;;;;;;;;0.00;0.00;;;;;19.43;65.17;100037.59;5056094;28;45629;-65
2022/06/08 08:31:31;;;;;;;;;0.00;0.00;;;;;19.57;65.13;100025.78;5054838;28;45488;-65
2022/06/08 08:33:57;;;;;;;;;0.00;0.00;;;;;19.68;64.66;100027.63;5055264;28;45565;-65
2022/06/08 08:36:22;;;;;;;;;0.00;0.00;;;;;19.72;64.44;100023.72;5055534;28;45390;-65
2022/06/08 08:38:48;;;;;;;;;0.00;0.00;;;;;19.73;64.20;100024.56;5040082;28;45496;-66
2022/06/08 08:44:36;;;;;;;;;0.75;0.75;;;;;19.77;64.57;100034.00;5058258;28;45782;-65
2022/06/08 08:47:08;;;;;;;;;1.00;1.00;;;;;19.87;63.56;100045.63;5055583;28;45440;-65
2022/06/08 08:49:36;;;;;;;;;1.75;1.00;;;;;19.78;63.76;100044.56;5055659;28;45527;-65
2022/06/08 08:52:14;;;;;;;;;0.00;0.00;;;;;19.73;64.35;100054.75;5055813;28;45530;-64
2022/06/08 08:54:51;;;;;;;;;0.00;0.00;;;;;19.75;64.66;100062.66;5055618;28;45540;-65
2022/06/08 08:57:30;;;;;;;;;1.00;1.00;;;;;19.73;64.52;100062.78;5055680;28;45533;-65
2022/06/08 08:59:56;;;;;;;;;1.00;1.00;;;;;19.64;65.17;100061.69;5080348;27;45537;-65
2022/06/08 09:05:20;;;;;;;;;0.00;0.00;;;;;19.60;65.12;100070.88;5081285;27;45830;-65
2022/06/08 09:07:47;;;;;;;;;1.00;1.00;;;;;19.56;65.40;100058.78;5075935;28;45563;-65
2022/06/08 09:10:16;;;;;;;;;1.00;1.00;;;;;19.63;65.88;100070.63;5057069;28;45535;-65
2022/06/08 09:12:44;;;;;;;;;1.00;1.00;;;;;19.68;65.44;100074.78;5056246;28;45523;-67
2022/06/08 09:15:11;;;;;;;;;2.33;2.33;;;;;19.72;65.33;100068.22;5062315;28;46240;-64
2022/06/08 09:17:39;;;;;;;;;1.00;1.00;;;;;19.71;64.95;100056.69;5055223;28;45512;-64
2022/06/08 09:20:30;;;;;;;;;3.00;3.00;;;;;19.77;65.07;100058.00;5060901;27;45427;-65
2022/06/08 09:23:01;;;;;;;;;1.00;1.00;;;;;19.80;65.43;100060.44;5075948;28;45478;-65
2022/06/08 09:25:30;;;;;;;;;1.50;1.50;;;;;19.85;65.33;100060.91;5060126;28;45490;-64
2022/06/08 09:27:58;;;;;;;;;1.25;1.25;;;;;19.92;64.70;100053.25;5055088;28;45565;-65
2022/06/08 09:30:27;;;;;;;;;0.75;0.75;;;;;20.06;64.40;100052.94;5060357;28;45537;-64
2022/06/08 09:32:57;;;;;;;;;1.50;1.50;;;;;20.12;64.37;100059.56;5074485;28;45720;-65
2022/06/08 09:35:26;;;;;;;;;2.33;2.33;;;;;20.13;63.91;100063.97;5060956;28;46487;-65
2022/06/08 09:37:55;;;;;;;;;0.50;0.25;;;;;20.02;63.63;100051.50;5055001;28;45513;-65
2022/06/08 09:40:38;;;;;;;;;3.00;3.00;;;;;20.10;64.32;100062.38;5054902;28;45590;-65
2022/06/08 09:43:42;;;;;;;;;4.50;3.00;;;;;20.15;64.26;100057.53;5055069;28;45448;-65
2022/06/08 09:46:16;;;;;;;;;3.00;1.00;;;;;20.24;64.07;100053.22;5054896;28;45557;-66
2022/06/08 09:52:00;;;;;;;;;1.50;1.50;;;;;20.26;62.89;100062.78;5062695;28;45416;-66
2022/06/08 09:54:51;;;;;;;;;1.25;1.25;;;;;20.26;62.66;100048.59;5074641;28;45603;-66
2022/06/08 09:57:41;;;;;;;;;1.00;1.00;;;;;20.32;62.69;100042.72;5057497;28;45515;-65
2022/06/08 10:00:12;;;;;;;;;1.00;1.00;;;;;20.34;60.97;100051.47;5058639;28;45505;-66
2022/06/08 10:02:42;;;;;;;;;1.00;1.00;;;;;20.38;61.51;100046.69;5060262;27;45761;-64
2022/06/08 10:05:07;;;;;;;;;1.00;1.00;;;;;20.44;61.01;100051.50;5074253;28;45615;-64
2022/06/08 10:07:51;;;;;;;;;1.00;1.00;;;;;20.49;60.85;100050.13;5074610;28;45980;-64
2022/06/08 10:10:41;;;;;;;;;2.00;2.00;;;;;20.56;60.76;100034.47;5062058;28;45433;-65
2022/06/08 10:13:20;;;;;;;;;2.00;2.00;;;;;20.60;60.21;100033.22;5054593;28;45455;-65
2022/06/08 10:16:02;;;;;;;;;0.75;0.75;;;;;20.63;59.01;100026.75;5054542;28;45477;-64
2022/06/08 10:18:39;;;;;;;;;1.50;1.50;;;;;20.63;58.81;100027.63;5054196;28;46536;-65
2022/06/08 10:21:19;;;;;;;;;1.00;1.00;;;;;20.57;58.83;100004.09;5055315;28;45473;-65
2022/06/08 10:23:53;;;;;;;;;1.00;1.00;;;;;20.73;59.00;100017.81;5054627;28;45526;-65
2022/06/08 10:26:36;;;;;;;;;2.00;2.00;;;;;20.86;59.00;100024.78;5054406;28;45572;-65
2022/06/08 10:29:23;;;;;;;;;1.75;1.25;;;;;20.91;57.00;100038.59;5053782;28;46168;-64
2022/06/08 10:32:00;;;;;;;;;64.75;52.75;;;;;21.04;56.88;100025.00;5054007;28;45566;-65
2022/06/08 10:34:31;;;;;;;;;2.00;2.00;;;;;21.11;56.55;100018.09;5064250;28;45527;-68
2022/06/08 10:37:07;;;;;;;;;1.25;1.25;;;;;21.20;56.61;100014.63;5037533;28;46223;-64
2022/06/08 10:39:34;;;;;;;;;2.00;2.00;;;;;21.21;56.33;100016.31;5058717;27;45618;-65
2022/06/08 10:45:22;;;;;;;;;2.25;1.75;;;;;20.97;57.85;100027.34;5061941;27;45592;-67
2022/06/08 10:48:13;;;;;;;;;2.00;2.00;;;;;20.86;58.38;100038.97;5062260;27;45482;-69
2022/06/08 10:51:03;;;;;;;;;0.00;0.00;;;;;20.63;59.01;100038.31;5076803;27;46127;-69
2022/06/08 10:56:26;;;;;;;;;1.25;1.25;;;;;20.34;60.96;100050.59;5058463;27;45601;-69
2022/06/08 10:59:03;;;;;;;;;2.00;2.00;;;;;20.29;61.40;100053.69;5067920;27;45412;-65
2022/06/08 11:01:31;;;;;;;;;2.00;2.00;;;;;20.20;61.26;100062.44;5062565;28;46417;-65
2022/06/08 11:03:58;;;;;;;;;1.00;1.00;;;;;20.13;62.17;100056.78;5066827;27;45574;-64
2022/06/08 11:06:45;;;;;;;;;2.75;2.75;;;;;20.14;63.24;100062.97;5083788;27;45461;-65
2022/06/08 11:09:40;;;;;;;;;3.50;3.50;;;;;20.23;62.57;100057.72;5059674;27;45585;-63
2022/06/08 11:12:12;;;;;;;;;5.25;4.00;;;;;20.35;62.74;100054.97;5047873;27;46743;-63
2022/06/08 11:14:44;;;;;;;;;4.75;3.75;;;;;20.41;61.88;100060.63;5054006;28;45599;-64
2022/06/08 11:17:27;;;;;;;;;2.00;2.00;;;;;20.38;61.71;100039.53;5069282;27;45556;-66
2022/06/08 11:19:58;;;;;;;;;3.25;3.25;;;;;20.50;61.87;100049.19;5062279;28;45456;-64
2022/06/08 11:22:29;;;;;;;;;4.00;4.00;;;;;20.52;61.53;100049.91;5063168;28;45521;-69
2022/06/08 11:25:01;;;;;;;;;4.75;3.00;;;;;20.53;61.39;100053.41;5063746;27;46165;-65
2022/06/08 11:27:34;;;;;;;;;3.75;3.50;;;;;20.52;61.88;100057.03;5077437;27;45648;-65
2022/06/08 11:30:06;;;;;;;;;3.50;3.00;;;;;20.49;61.20;100057.31;5080408;27;45512;-64
2022/06/08 11:32:32;;;;;;;;;3.00;3.00;;;;;20.51;60.21;100048.19;5058609;27;45685;-63
2022/06/08 11:35:35;;;;;;;;;1.75;1.75;;;;;20.55;59.58;100045.28;5067284;27;45574;-63
2022/06/08 11:38:16;;;;;;;;;2.00;2.00;;;;;20.53;59.15;100029.38;5085502;27;45529;-64
2022/06/08 11:40:42;;;;;;;;;4.25;3.00;;;;;20.70;58.12;100041.28;5069010;27;45449;-63
2022/06/08 11:43:10;;;;;;;;;2.50;2.50;;;;;20.71;58.73;100038.50;5065970;27;45667;-64
2022/06/08 11:45:44;;;;;;;;;1.75;1.00;;;;;20.85;57.76;100042.63;5052912;27;45505;-64
2022/06/08 11:48:19;;;;;;;;;1.00;1.00;;;;;20.95;56.45;100035.50;5062759;28;45471;-66
2022/06/08 11:50:47;;;;;;;;;3.00;3.00;;;;;21.05;57.01;100034.69;5075536;27;45811;-67
2022/06/08 11:53:29;;;;;;;;;3.25;2.75;;;;;21.02;55.70;100032.28;5073964;27;46396;-64
2022/06/08 11:55:58;;;;;;;;;4.75;3.75;;;;;;;;5078091;27;45522;-66
2022/06/08 11:58:28;;;;;;;;;2.75;1.75;;;;;21.03;54.89;100044.66;5076686;28;45432;-64
2022/06/08 12:01:07;;;;;;;;;2.00;2.00;;;;;20.95;54.71;100030.16;5060306;28;45599;-63